sensor_id;sensor_type;location;lat;lon;timestamp;P1;durP1;ratioP1;P2;durP2;ratioP2
25331;SDS011;13284;52.748;13.452;2023-02-01T00:01:09;8.63;;;2.17;;
25331;SDS011;13284;52.748;13.452;2023-02-01T00:03:35;5.93;;;1.33;;
25331;SDS011;13284;52.748;13.452;2023-02-01T00:06:02;7.37;;;1.23;;
25331;SDS011;13284;52.748;13.452;2023-02-01T00:08:28;8.93;;;1.60;;
25331;SDS011;13284;52.748;13.452;2023-02-01T00:13:27;7.47;;;1.30;;
25331;SDS011;13284;52.748;13.452;2023-02-01T00:15:54;7.03;;;1.50;;
25331;SDS011;13284;52.748;13.452;2023-02-01T00:18:26;8.00;;;1.53;;
25331;SDS011;13284;52.748;13.452;2023-02-01T00:20:52;5.40;;;1.90;;
25331;SDS011;13284;52.748;13.452;2023-02-01T00:23:17;6.77;;;1.63;;
25331;SDS011;13284;52.748;13.452;2023-02-01T00:25:42;11.00;;;2.37;;
25331;SDS011;13284;52.748;13.452;2023-02-01T00:28:08;8.83;;;2.37;;
25331;SDS011;13284;52.748;13.452;2023-02-01T00:30:33;7.23;;;2.43;;
25331;SDS011;13284;52.748;13.452;2023-02-01T00:32:59;9.23;;;2.00;;
25331;SDS011;13284;52.748;13.452;2023-02-01T00:35:25;8.07;;;2.30;;
25331;SDS011;13284;52.748;13.452;2023-02-01T00:37:50;7.47;;;1.60;;
25331;SDS011;13284;52.748;13.452;2023-02-01T00:40:16;11.23;;;1.93;;
25331;SDS011;13284;52.748;13.452;2023-02-01T00:42:41;5.57;;;2.10;;
25331;SDS011;13284;52.748;13.452;2023-02-01T00:45:07;13.20;;;2.10;;
25331;SDS011;13284;52.748;13.452;2023-02-01T00:47:33;11.30;;;2.57;;
25331;SDS011;13284;52.748;13.452;2023-02-01T00:49:58;5.27;;;1.77;;
25331;SDS011;13284;52.748;13.452;2023-02-01T00:52:24;7.60;;;1.80;;
25331;SDS011;13284;52.748;13.452;2023-02-01T00:54:49;6.73;;;2.03;;
25331;SDS011;13284;52.748;13.452;2023-02-01T00:57:15;7.23;;;2.27;;
25331;SDS011;13284;52.748;13.452;2023-02-01T00:59:40;12.40;;;2.60;;
25331;SDS011;13284;52.748;13.452;2023-02-01T01:02:06;9.53;;;1.83;;
25331;SDS011;13284;52.748;13.452;2023-02-01T01:04:31;5.27;;;1.87;;
25331;SDS011;13284;52.748;13.452;2023-02-01T01:06:57;4.30;;;1.27;;
25331;SDS011;13284;52.748;13.452;2023-02-01T01:09:22;6.07;;;2.93;;
25331;SDS011;13284;52.748;13.452;2023-02-01T01:11:47;3.43;;;2.30;;
25331;SDS011;13284;52.748;13.452;2023-02-01T01:14:13;4.63;;;1.13;;
25331;SDS011;13284;52.748;13.452;2023-02-01T01:16:38;7.30;;;3.27;;
25331;SDS011;13284;52.748;13.452;2023-02-01T01:19:04;7.33;;;2.00;;
25331;SDS011;13284;52.748;13.452;2023-02-01T01:21:30;8.13;;;1.60;;
25331;SDS011;13284;52.748;13.452;2023-02-01T01:23:56;7.47;;;1.57;;
25331;SDS011;13284;52.748;13.452;2023-02-01T01:26:26;6.50;;;1.57;;
25331;SDS011;13284;52.748;13.452;2023-02-01T01:28:54;8.13;;;1.40;;
25331;SDS011;13284;52.748;13.452;2023-02-01T01:31:21;2.93;;;1.07;;
25331;SDS011;13284;52.748;13.452;2023-02-01T01:33:47;2.90;;;1.40;;
25331;SDS011;13284;52.748;13.452;2023-02-01T01:36:14;6.53;;;1.23;;
25331;SDS011;13284;52.748;13.452;2023-02-01T01:38:40;6.47;;;1.77;;
25331;SDS011;13284;52.748;13.452;2023-02-01T01:41:06;4.03;;;1.53;;
25331;SDS011;13284;52.748;13.452;2023-02-01T01:43:49;4.30;;;1.60;;
25331;SDS011;13284;52.748;13.452;2023-02-01T01:46:17;2.03;;;1.00;;
25331;SDS011;13284;52.748;13.452;2023-02-01T01:48:44;4.43;;;1.30;;
25331;SDS011;13284;52.748;13.452;2023-02-01T01:51:10;9.27;;;1.70;;
25331;SDS011;13284;52.748;13.452;2023-02-01T01:53:47;4.77;;;1.20;;
25331;SDS011;13284;52.748;13.452;2023-02-01T01:56:21;5.73;;;1.90;;
25331;SDS011;13284;52.748;13.452;2023-02-01T01:58:47;4.57;;;1.27;;
25331;SDS011;13284;52.748;13.452;2023-02-01T02:01:12;6.93;;;1.50;;
25331;SDS011;13284;52.748;13.452;2023-02-01T02:03:39;6.73;;;1.73;;
25331;SDS011;13284;52.748;13.452;2023-02-01T02:06:11;6.73;;;1.27;;
25331;SDS011;13284;52.748;13.452;2023-02-01T02:08:42;4.03;;;1.47;;
25331;SDS011;13284;52.748;13.452;2023-02-01T02:11:07;5.53;;;1.93;;
25331;SDS011;13284;52.748;13.452;2023-02-01T02:13:45;6.30;;;2.27;;
25331;SDS011;13284;52.748;13.452;2023-02-01T02:19:23;6.60;;;1.57;;
25331;SDS011;13284;52.748;13.452;2023-02-01T02:32:46;10.30;;;2.97;;
25331;SDS011;13284;52.748;13.452;2023-02-01T02:35:25;5.43;;;1.80;;
25331;SDS011;13284;52.748;13.452;2023-02-01T02:41:10;10.30;;;2.43;;
25331;SDS011;13284;52.748;13.452;2023-02-01T02:44:11;6.40;;;1.93;;
25331;SDS011;13284;52.748;13.452;2023-02-01T02:47:05;4.30;;;1.80;;
25331;SDS011;13284;52.748;13.452;2023-02-01T02:49:59;5.93;;;1.70;;
25331;SDS011;13284;52.748;13.452;2023-02-01T02:52:53;10.23;;;1.90;;
25331;SDS011;13284;52.748;13.452;2023-02-01T02:55:53;4.73;;;1.80;;
25331;SDS011;13284;52.748;13.452;2023-02-01T02:58:38;7.37;;;2.80;;
25331;SDS011;13284;52.748;13.452;2023-02-01T03:01:23;8.30;;;2.20;;
25331;SDS011;13284;52.748;13.452;2023-02-01T03:04:07;5.33;;;1.57;;
25331;SDS011;13284;52.748;13.452;2023-02-01T03:06:42;6.50;;;1.90;;
25331;SDS011;13284;52.748;13.452;2023-02-01T03:09:09;3.83;;;1.27;;
25331;SDS011;13284;52.748;13.452;2023-02-01T03:11:57;5.93;;;1.10;;
25331;SDS011;13284;52.748;13.452;2023-02-01T03:14:46;3.57;;;1.23;;
25331;SDS011;13284;52.748;13.452;2023-02-01T03:17:17;11.57;;;1.90;;
25331;SDS011;13284;52.748;13.452;2023-02-01T03:19:48;7.10;;;1.80;;
25331;SDS011;13284;52.748;13.452;2023-02-01T03:22:17;4.83;;;2.00;;
25331;SDS011;13284;52.748;13.452;2023-02-01T03:24:55;4.43;;;1.07;;
25331;SDS011;13284;52.748;13.452;2023-02-01T03:27:32;8.17;;;1.17;;
25331;SDS011;13284;52.748;13.452;2023-02-01T03:30:13;5.33;;;2.13;;
25331;SDS011;13284;52.748;13.452;2023-02-01T03:32:49;6.23;;;1.37;;
25331;SDS011;13284;52.748;13.452;2023-02-01T03:38:13;6.03;;;1.80;;
25331;SDS011;13284;52.748;13.452;2023-02-01T03:41:08;5.30;;;1.60;;
25331;SDS011;13284;52.748;13.452;2023-02-01T03:46:41;8.23;;;1.60;;
25331;SDS011;13284;52.748;13.452;2023-02-01T03:49:18;7.70;;;1.90;;
25331;SDS011;13284;52.748;13.452;2023-02-01T03:51:53;6.70;;;1.83;;
25331;SDS011;13284;52.748;13.452;2023-02-01T03:54:19;14.90;;;2.07;;
25331;SDS011;13284;52.748;13.452;2023-02-01T03:56:45;10.13;;;2.30;;
25331;SDS011;13284;52.748;13.452;2023-02-01T03:59:13;8.60;;;2.70;;
25331;SDS011;13284;52.748;13.452;2023-02-01T04:01:39;7.90;;;1.77;;
25331;SDS011;13284;52.748;13.452;2023-02-01T04:04:05;6.33;;;1.73;;
25331;SDS011;13284;52.748;13.452;2023-02-01T04:06:31;5.80;;;2.27;;
25331;SDS011;13284;52.748;13.452;2023-02-01T04:08:56;7.03;;;1.50;;
25331;SDS011;13284;52.748;13.452;2023-02-01T04:11:22;5.17;;;1.60;;
25331;SDS011;13284;52.748;13.452;2023-02-01T04:13:47;8.90;;;1.90;;
25331;SDS011;13284;52.748;13.452;2023-02-01T04:16:13;5.00;;;1.23;;
25331;SDS011;13284;52.748;13.452;2023-02-01T04:18:38;10.87;;;1.93;;
25331;SDS011;13284;52.748;13.452;2023-02-01T04:21:04;3.20;;;1.60;;
25331;SDS011;13284;52.748;13.452;2023-02-01T04:23:30;6.60;;;2.57;;
25331;SDS011;13284;52.748;13.452;2023-02-01T04:26:00;9.52;;;2.50;;
25331;SDS011;13284;52.748;13.452;2023-02-01T04:28:27;11.40;;;3.00;;
25331;SDS011;13284;52.748;13.452;2023-02-01T04:30:53;14.90;;;2.17;;
25331;SDS011;13284;52.748;13.452;2023-02-01T04:33:18;8.80;;;2.17;;
25331;SDS011;13284;52.748;13.452;2023-02-01T04:35:44;7.37;;;1.77;;
25331;SDS011;13284;52.748;13.452;2023-02-01T04:38:09;3.13;;;1.33;;
25331;SDS011;13284;52.748;13.452;2023-02-01T04:40:35;9.27;;;1.70;;
25331;SDS011;13284;52.748;13.452;2023-02-01T04:43:02;11.27;;;1.90;;
25331;SDS011;13284;52.748;13.452;2023-02-01T04:45:28;6.83;;;2.47;;
25331;SDS011;13284;52.748;13.452;2023-02-01T04:47:54;14.53;;;2.43;;
25331;SDS011;13284;52.748;13.452;2023-02-01T04:50:19;9.07;;;2.07;;
25331;SDS011;13284;52.748;13.452;2023-02-01T04:52:45;8.40;;;2.60;;
25331;SDS011;13284;52.748;13.452;2023-02-01T04:55:11;4.37;;;2.00;;
25331;SDS011;13284;52.748;13.452;2023-02-01T04:57:38;7.47;;;1.83;;
25331;SDS011;13284;52.748;13.452;2023-02-01T05:00:05;9.60;;;1.70;;
25331;SDS011;13284;52.748;13.452;2023-02-01T05:02:31;12.50;;;2.47;;
25331;SDS011;13284;52.748;13.452;2023-02-01T05:04:57;10.50;;;2.77;;
25331;SDS011;13284;52.748;13.452;2023-02-01T05:07:22;8.67;;;2.00;;
25331;SDS011;13284;52.748;13.452;2023-02-01T05:09:48;8.33;;;2.40;;
25331;SDS011;13284;52.748;13.452;2023-02-01T05:12:13;6.93;;;1.93;;
25331;SDS011;13284;52.748;13.452;2023-02-01T05:14:57;8.77;;;3.00;;
25331;SDS011;13284;52.748;13.452;2023-02-01T05:17:23;10.47;;;1.80;;
25331;SDS011;13284;52.748;13.452;2023-02-01T05:19:48;6.60;;;1.87;;
25331;SDS011;13284;52.748;13.452;2023-02-01T05:22:14;11.27;;;2.10;;
25331;SDS011;13284;52.748;13.452;2023-02-01T05:24:39;7.27;;;1.87;;
25331;SDS011;13284;52.748;13.452;2023-02-01T05:27:04;9.87;;;2.10;;
25331;SDS011;13284;52.748;13.452;2023-02-01T05:29:30;12.70;;;1.93;;
25331;SDS011;13284;52.748;13.452;2023-02-01T05:31:55;11.23;;;1.77;;
25331;SDS011;13284;52.748;13.452;2023-02-01T05:34:21;11.03;;;2.67;;
25331;SDS011;13284;52.748;13.452;2023-02-01T05:36:46;3.27;;;2.00;;
25331;SDS011;13284;52.748;13.452;2023-02-01T05:39:12;8.20;;;1.90;;
25331;SDS011;13284;52.748;13.452;2023-02-01T05:41:37;6.43;;;1.87;;
25331;SDS011;13284;52.748;13.452;2023-02-01T05:44:03;12.27;;;2.50;;
25331;SDS011;13284;52.748;13.452;2023-02-01T05:46:28;11.63;;;2.40;;
25331;SDS011;13284;52.748;13.452;2023-02-01T05:48:54;8.60;;;2.47;;
25331;SDS011;13284;52.748;13.452;2023-02-01T05:51:19;4.93;;;1.03;;
25331;SDS011;13284;52.748;13.452;2023-02-01T05:53:45;8.37;;;3.50;;
25331;SDS011;13284;52.748;13.452;2023-02-01T05:56:10;7.67;;;1.67;;
25331;SDS011;13284;52.748;13.452;2023-02-01T05:58:36;10.87;;;2.40;;
25331;SDS011;13284;52.748;13.452;2023-02-01T06:01:02;3.53;;;1.30;;
25331;SDS011;13284;52.748;13.452;2023-02-01T06:03:28;8.33;;;1.90;;
25331;SDS011;13284;52.748;13.452;2023-02-01T06:05:54;22.17;;;3.20;;
25331;SDS011;13284;52.748;13.452;2023-02-01T06:08:20;10.80;;;2.33;;
25331;SDS011;13284;52.748;13.452;2023-02-01T06:10:45;6.30;;;1.93;;
25331;SDS011;13284;52.748;13.452;2023-02-01T06:13:11;4.57;;;1.67;;
25331;SDS011;13284;52.748;13.452;2023-02-01T06:15:36;8.70;;;2.10;;
25331;SDS011;13284;52.748;13.452;2023-02-01T06:18:02;7.20;;;2.53;;
25331;SDS011;13284;52.748;13.452;2023-02-01T06:20:28;5.10;;;2.77;;
25331;SDS011;13284;52.748;13.452;2023-02-01T06:22:53;5.27;;;2.20;;
25331;SDS011;13284;52.748;13.452;2023-02-01T06:25:19;6.20;;;1.83;;
25331;SDS011;13284;52.748;13.452;2023-02-01T06:27:45;5.27;;;1.53;;
25331;SDS011;13284;52.748;13.452;2023-02-01T06:30:11;9.40;;;2.40;;
25331;SDS011;13284;52.748;13.452;2023-02-01T06:32:40;8.63;;;2.00;;
25331;SDS011;13284;52.748;13.452;2023-02-01T06:35:07;6.93;;;2.50;;
25331;SDS011;13284;52.748;13.452;2023-02-01T06:37:36;9.93;;;2.30;;
25331;SDS011;13284;52.748;13.452;2023-02-01T06:40:02;13.93;;;2.17;;
25331;SDS011;13284;52.748;13.452;2023-02-01T06:42:28;2.67;;;1.17;;
25331;SDS011;13284;52.748;13.452;2023-02-01T06:44:54;5.73;;;1.93;;
25331;SDS011;13284;52.748;13.452;2023-02-01T06:47:19;6.33;;;2.03;;
25331;SDS011;13284;52.748;13.452;2023-02-01T06:49:45;7.57;;;2.10;;
25331;SDS011;13284;52.748;13.452;2023-02-01T06:52:10;4.97;;;1.70;;
25331;SDS011;13284;52.748;13.452;2023-02-01T06:54:36;8.77;;;2.03;;
25331;SDS011;13284;52.748;13.452;2023-02-01T06:57:02;4.10;;;2.33;;
25331;SDS011;13284;52.748;13.452;2023-02-01T06:59:28;6.77;;;1.47;;
25331;SDS011;13284;52.748;13.452;2023-02-01T07:01:53;6.03;;;2.30;;
25331;SDS011;13284;52.748;13.452;2023-02-01T07:04:19;7.10;;;2.00;;
25331;SDS011;13284;52.748;13.452;2023-02-01T07:06:44;6.37;;;1.80;;
25331;SDS011;13284;52.748;13.452;2023-02-01T07:09:10;7.37;;;1.83;;
25331;SDS011;13284;52.748;13.452;2023-02-01T07:11:37;5.13;;;1.83;;
25331;SDS011;13284;52.748;13.452;2023-02-01T07:14:05;8.90;;;2.40;;
25331;SDS011;13284;52.748;13.452;2023-02-01T07:16:31;5.70;;;2.20;;
25331;SDS011;13284;52.748;13.452;2023-02-01T07:18:56;7.90;;;2.10;;
25331;SDS011;13284;52.748;13.452;2023-02-01T07:21:22;7.93;;;1.50;;
25331;SDS011;13284;52.748;13.452;2023-02-01T07:23:47;6.90;;;2.00;;
25331;SDS011;13284;52.748;13.452;2023-02-01T07:26:13;9.33;;;2.87;;
25331;SDS011;13284;52.748;13.452;2023-02-01T07:28:39;9.03;;;1.93;;
25331;SDS011;13284;52.748;13.452;2023-02-01T07:31:06;5.23;;;2.07;;
25331;SDS011;13284;52.748;13.452;2023-02-01T07:33:33;8.93;;;2.30;;
25331;SDS011;13284;52.748;13.452;2023-02-01T07:36:00;4.63;;;1.77;;
25331;SDS011;13284;52.748;13.452;2023-02-01T07:38:30;4.20;;;2.27;;
25331;SDS011;13284;52.748;13.452;2023-02-01T07:40:59;8.13;;;2.27;;
25331;SDS011;13284;52.748;13.452;2023-02-01T07:43:26;7.70;;;2.43;;
25331;SDS011;13284;52.748;13.452;2023-02-01T07:45:52;7.83;;;3.10;;
25331;SDS011;13284;52.748;13.452;2023-02-01T07:48:19;5.50;;;2.10;;
25331;SDS011;13284;52.748;13.452;2023-02-01T07:50:45;6.43;;;1.60;;
25331;SDS011;13284;52.748;13.452;2023-02-01T07:53:11;5.20;;;2.10;;
25331;SDS011;13284;52.748;13.452;2023-02-01T07:55:37;8.03;;;2.20;;
25331;SDS011;13284;52.748;13.452;2023-02-01T07:58:04;6.37;;;2.37;;
25331;SDS011;13284;52.748;13.452;2023-02-01T08:00:29;5.30;;;2.40;;
25331;SDS011;13284;52.748;13.452;2023-02-01T08:03:14;6.40;;;2.00;;
25331;SDS011;13284;52.748;13.452;2023-02-01T08:05:39;3.60;;;2.37;;
25331;SDS011;13284;52.748;13.452;2023-02-01T08:08:05;2.97;;;1.80;;
25331;SDS011;13284;52.748;13.452;2023-02-01T08:10:31;3.17;;;1.33;;
25331;SDS011;13284;52.748;13.452;2023-02-01T08:12:59;4.73;;;2.00;;
25331;SDS011;13284;52.748;13.452;2023-02-01T08:15:26;4.10;;;2.23;;
25331;SDS011;13284;52.748;13.452;2023-02-01T08:17:53;6.37;;;2.33;;
25331;SDS011;13284;52.748;13.452;2023-02-01T08:20:19;2.83;;;1.20;;
25331;SDS011;13284;52.748;13.452;2023-02-01T08:22:50;3.73;;;1.97;;
25331;SDS011;13284;52.748;13.452;2023-02-01T08:25:18;2.60;;;1.17;;
25331;SDS011;13284;52.748;13.452;2023-02-01T08:27:44;7.30;;;1.80;;
25331;SDS011;13284;52.748;13.452;2023-02-01T08:30:10;5.40;;;1.50;;
25331;SDS011;13284;52.748;13.452;2023-02-01T08:32:36;5.77;;;1.70;;
25331;SDS011;13284;52.748;13.452;2023-02-01T08:35:02;2.13;;;1.00;;
25331;SDS011;13284;52.748;13.452;2023-02-01T08:37:28;2.50;;;0.70;;
25331;SDS011;13284;52.748;13.452;2023-02-01T08:39:54;0.63;;;0.57;;
25331;SDS011;13284;52.748;13.452;2023-02-01T08:42:19;1.10;;;0.83;;
25331;SDS011;13284;52.748;13.452;2023-02-01T08:45:04;0.50;;;0.50;;
25331;SDS011;13284;52.748;13.452;2023-02-01T08:47:30;1.13;;;0.70;;
25331;SDS011;13284;52.748;13.452;2023-02-01T08:49:56;3.50;;;2.70;;
25331;SDS011;13284;52.748;13.452;2023-02-01T08:52:21;2.57;;;0.80;;
25331;SDS011;13284;52.748;13.452;2023-02-01T08:54:47;2.90;;;1.20;;
25331;SDS011;13284;52.748;13.452;2023-02-01T08:57:12;1.20;;;1.10;;
25331;SDS011;13284;52.748;13.452;2023-02-01T08:59:38;0.50;;;0.50;;
25331;SDS011;13284;52.748;13.452;2023-02-01T09:02:03;1.13;;;1.03;;
25331;SDS011;13284;52.748;13.452;2023-02-01T09:04:29;1.03;;;1.00;;
25331;SDS011;13284;52.748;13.452;2023-02-01T09:06:54;1.50;;;0.50;;
25331;SDS011;13284;52.748;13.452;2023-02-01T09:09:20;0.80;;;0.63;;
25331;SDS011;13284;52.748;13.452;2023-02-01T09:11:47;0.80;;;0.63;;
25331;SDS011;13284;52.748;13.452;2023-02-01T09:14:12;1.53;;;0.73;;
25331;SDS011;13284;52.748;13.452;2023-02-01T09:16:38;0.70;;;0.63;;
25331;SDS011;13284;52.748;13.452;2023-02-01T09:19:03;1.00;;;0.90;;
25331;SDS011;13284;52.748;13.452;2023-02-01T09:21:29;1.27;;;0.70;;
25331;SDS011;13284;52.748;13.452;2023-02-01T09:23:54;4.63;;;1.60;;
25331;SDS011;13284;52.748;13.452;2023-02-01T09:26:20;2.47;;;0.80;;
25331;SDS011;13284;52.748;13.452;2023-02-01T09:28:46;2.93;;;1.00;;
25331;SDS011;13284;52.748;13.452;2023-02-01T09:31:11;0.97;;;0.80;;
25331;SDS011;13284;52.748;13.452;2023-02-01T09:33:37;1.17;;;0.60;;
25331;SDS011;13284;52.748;13.452;2023-02-01T09:36:03;2.00;;;0.80;;
25331;SDS011;13284;52.748;13.452;2023-02-01T09:38:29;1.10;;;0.80;;
25331;SDS011;13284;52.748;13.452;2023-02-01T09:40:57;4.87;;;1.20;;
25331;SDS011;13284;52.748;13.452;2023-02-01T09:46:32;2.77;;;1.00;;
25331;SDS011;13284;52.748;13.452;2023-02-01T09:49:00;2.87;;;0.93;;
25331;SDS011;13284;52.748;13.452;2023-02-01T09:51:31;1.17;;;0.60;;
25331;SDS011;13284;52.748;13.452;2023-02-01T09:54:06;1.67;;;1.00;;
25331;SDS011;13284;52.748;13.452;2023-02-01T09:56:42;1.83;;;1.00;;
25331;SDS011;13284;52.748;13.452;2023-02-01T10:01:48;2.20;;;0.73;;
25331;SDS011;13284;52.748;13.452;2023-02-01T10:04:14;1.50;;;0.90;;
25331;SDS011;13284;52.748;13.452;2023-02-01T10:12:27;1.67;;;0.80;;
25331;SDS011;13284;52.748;13.452;2023-02-01T10:15:22;6.30;;;1.63;;
25331;SDS011;13284;52.748;13.452;2023-02-01T10:21:02;1.67;;;0.67;;
25331;SDS011;13284;52.748;13.452;2023-02-01T10:26:20;2.23;;;0.77;;
25331;SDS011;13284;52.748;13.452;2023-02-01T10:28:51;1.07;;;0.60;;
25331;SDS011;13284;52.748;13.452;2023-02-01T10:31:22;1.47;;;0.40;;
25331;SDS011;13284;52.748;13.452;2023-02-01T10:33:52;2.00;;;0.47;;
25331;SDS011;13284;52.748;13.452;2023-02-01T10:36:28;5.60;;;1.23;;
25331;SDS011;13284;52.748;13.452;2023-02-01T10:39:00;0.80;;;0.50;;
25331;SDS011;13284;52.748;13.452;2023-02-01T10:41:31;4.30;;;0.97;;
25331;SDS011;13284;52.748;13.452;2023-02-01T10:43:59;3.63;;;0.70;;
25331;SDS011;13284;52.748;13.452;2023-02-01T10:46:30;2.33;;;0.70;;
25331;SDS011;13284;52.748;13.452;2023-02-01T10:48:56;3.10;;;0.80;;
25331;SDS011;13284;52.748;13.452;2023-02-01T10:51:30;2.03;;;0.80;;
25331;SDS011;13284;52.748;13.452;2023-02-01T10:54:16;2.70;;;1.10;;
25331;SDS011;13284;52.748;13.452;2023-02-01T10:56:45;2.20;;;1.07;;
25331;SDS011;13284;52.748;13.452;2023-02-01T10:59:19;3.40;;;0.90;;
25331;SDS011;13284;52.748;13.452;2023-02-01T11:01:49;2.40;;;1.07;;
25331;SDS011;13284;52.748;13.452;2023-02-01T11:04:23;2.30;;;0.80;;
25331;SDS011;13284;52.748;13.452;2023-02-01T11:06:52;3.13;;;1.30;;
25331;SDS011;13284;52.748;13.452;2023-02-01T11:09:29;1.70;;;0.70;;
25331;SDS011;13284;52.748;13.452;2023-02-01T11:11:56;0.90;;;0.73;;
25331;SDS011;13284;52.748;13.452;2023-02-01T11:16:50;4.23;;;1.23;;
25331;SDS011;13284;52.748;13.452;2023-02-01T11:19:20;1.00;;;0.70;;
25331;SDS011;13284;52.748;13.452;2023-02-01T11:21:52;2.77;;;1.00;;
25331;SDS011;13284;52.748;13.452;2023-02-01T11:24:24;2.83;;;1.83;;
25331;SDS011;13284;52.748;13.452;2023-02-01T11:27:01;4.80;;;0.93;;
25331;SDS011;13284;52.748;13.452;2023-02-01T11:29:34;1.77;;;1.50;;
25331;SDS011;13284;52.748;13.452;2023-02-01T11:32:03;2.27;;;1.17;;
25331;SDS011;13284;52.748;13.452;2023-02-01T11:34:33;5.10;;;1.27;;
25331;SDS011;13284;52.748;13.452;2023-02-01T11:37:00;5.53;;;1.00;;
25331;SDS011;13284;52.748;13.452;2023-02-01T11:39:33;5.57;;;1.83;;
25331;SDS011;13284;52.748;13.452;2023-02-01T11:42:04;5.10;;;1.70;;
25331;SDS011;13284;52.748;13.452;2023-02-01T11:44:43;2.77;;;1.37;;
25331;SDS011;13284;52.748;13.452;2023-02-01T11:47:18;2.43;;;1.03;;
25331;SDS011;13284;52.748;13.452;2023-02-01T11:49:59;3.77;;;1.20;;
25331;SDS011;13284;52.748;13.452;2023-02-01T11:52:35;3.53;;;2.20;;
25331;SDS011;13284;52.748;13.452;2023-02-01T11:58:06;2.90;;;1.63;;
25331;SDS011;13284;52.748;13.452;2023-02-01T12:01:14;3.27;;;1.60;;
25331;SDS011;13284;52.748;13.452;2023-02-01T12:04:05;1.93;;;1.00;;
25331;SDS011;13284;52.748;13.452;2023-02-01T12:11:43;3.77;;;1.20;;
25331;SDS011;13284;52.748;13.452;2023-02-01T12:14:30;5.00;;;1.40;;
25331;SDS011;13284;52.748;13.452;2023-02-01T12:17:19;5.53;;;1.50;;
25331;SDS011;13284;52.748;13.452;2023-02-01T12:20:16;4.87;;;1.40;;
25331;SDS011;13284;52.748;13.452;2023-02-01T12:22:59;3.83;;;0.90;;
25331;SDS011;13284;52.748;13.452;2023-02-01T12:34:27;2.57;;;1.17;;
25331;SDS011;13284;52.748;13.452;2023-02-01T12:37:17;3.23;;;0.90;;
25331;SDS011;13284;52.748;13.452;2023-02-01T12:45:58;0.83;;;0.50;;
25331;SDS011;13284;52.748;13.452;2023-02-01T12:48:34;2.37;;;0.70;;
25331;SDS011;13284;52.748;13.452;2023-02-01T12:51:09;1.63;;;0.80;;
25331;SDS011;13284;52.748;13.452;2023-02-01T12:53:46;2.20;;;1.13;;
25331;SDS011;13284;52.748;13.452;2023-02-01T12:56:21;0.77;;;0.50;;
25331;SDS011;13284;52.748;13.452;2023-02-01T12:58:56;0.97;;;0.73;;
25331;SDS011;13284;52.748;13.452;2023-02-01T13:01:27;3.03;;;0.50;;
25331;SDS011;13284;52.748;13.452;2023-02-01T13:04:08;0.50;;;0.37;;
25331;SDS011;13284;52.748;13.452;2023-02-01T13:06:45;0.60;;;0.37;;
25331;SDS011;13284;52.748;13.452;2023-02-01T13:09:39;2.43;;;1.37;;
25331;SDS011;13284;52.748;13.452;2023-02-01T13:12:17;0.83;;;0.37;;
25331;SDS011;13284;52.748;13.452;2023-02-01T13:14:47;0.63;;;0.37;;
25331;SDS011;13284;52.748;13.452;2023-02-01T13:17:24;0.40;;;0.30;;
25331;SDS011;13284;52.748;13.452;2023-02-01T13:19:57;1.20;;;0.43;;
25331;SDS011;13284;52.748;13.452;2023-02-01T13:22:39;1.47;;;0.60;;
25331;SDS011;13284;52.748;13.452;2023-02-01T13:27:56;1.27;;;0.50;;
25331;SDS011;13284;52.748;13.452;2023-02-01T13:30:29;0.70;;;0.60;;
25331;SDS011;13284;52.748;13.452;2023-02-01T13:33:13;0.80;;;0.60;;
25331;SDS011;13284;52.748;13.452;2023-02-01T13:44:46;2.10;;;0.50;;
25331;SDS011;13284;52.748;13.452;2023-02-01T13:47:21;6.07;;;1.07;;
25331;SDS011;13284;52.748;13.452;2023-02-01T13:49:49;0.73;;;0.53;;
25331;SDS011;13284;52.748;13.452;2023-02-01T13:52:24;1.80;;;0.70;;
25331;SDS011;13284;52.748;13.452;2023-02-01T13:55:00;2.10;;;1.27;;
25331;SDS011;13284;52.748;13.452;2023-02-01T13:57:39;1.00;;;0.90;;
25331;SDS011;13284;52.748;13.452;2023-02-01T14:10:46;1.80;;;0.90;;
25331;SDS011;13284;52.748;13.452;2023-02-01T14:23:47;2.70;;;1.13;;
25331;SDS011;13284;52.748;13.452;2023-02-01T14:26:48;5.60;;;1.43;;
25331;SDS011;13284;52.748;13.452;2023-02-01T14:31:52;4.00;;;1.30;;
25331;SDS011;13284;52.748;13.452;2023-02-01T14:34:30;6.60;;;1.70;;
25331;SDS011;13284;52.748;13.452;2023-02-01T14:37:02;7.73;;;1.83;;
25331;SDS011;13284;52.748;13.452;2023-02-01T14:39:34;3.70;;;1.77;;
25331;SDS011;13284;52.748;13.452;2023-02-01T14:44:50;4.30;;;1.70;;
25331;SDS011;13284;52.748;13.452;2023-02-01T14:49:52;5.30;;;1.50;;
25331;SDS011;13284;52.748;13.452;2023-02-01T14:52:22;3.77;;;1.50;;
25331;SDS011;13284;52.748;13.452;2023-02-01T14:54:54;2.07;;;1.50;;
25331;SDS011;13284;52.748;13.452;2023-02-01T14:57:23;3.70;;;1.50;;
25331;SDS011;13284;52.748;13.452;2023-02-01T14:59:53;4.27;;;2.00;;
25331;SDS011;13284;52.748;13.452;2023-02-01T15:02:28;6.60;;;2.10;;
25331;SDS011;13284;52.748;13.452;2023-02-01T15:04:58;5.37;;;1.70;;
25331;SDS011;13284;52.748;13.452;2023-02-01T15:07:24;5.27;;;1.50;;
25331;SDS011;13284;52.748;13.452;2023-02-01T15:09:52;5.97;;;2.00;;
25331;SDS011;13284;52.748;13.452;2023-02-01T15:12:28;5.50;;;1.80;;
25331;SDS011;13284;52.748;13.452;2023-02-01T15:15:10;6.10;;;2.00;;
25331;SDS011;13284;52.748;13.452;2023-02-01T15:17:48;6.50;;;1.60;;
25331;SDS011;13284;52.748;13.452;2023-02-01T15:20:19;3.87;;;1.70;;
25331;SDS011;13284;52.748;13.452;2023-02-01T15:22:55;6.10;;;2.10;;
25331;SDS011;13284;52.748;13.452;2023-02-01T15:25:30;6.50;;;2.00;;
25331;SDS011;13284;52.748;13.452;2023-02-01T15:28:01;6.07;;;2.03;;
25331;SDS011;13284;52.748;13.452;2023-02-01T15:30:29;7.30;;;1.43;;
25331;SDS011;13284;52.748;13.452;2023-02-01T15:35:46;2.67;;;1.17;;
25331;SDS011;13284;52.748;13.452;2023-02-01T15:41:04;1.60;;;1.33;;
25331;SDS011;13284;52.748;13.452;2023-02-01T15:43:42;1.10;;;1.00;;
25331;SDS011;13284;52.748;13.452;2023-02-01T15:46:22;3.70;;;1.03;;
25331;SDS011;13284;52.748;13.452;2023-02-01T15:49:00;1.90;;;1.33;;
25331;SDS011;13284;52.748;13.452;2023-02-01T15:51:27;0.90;;;0.90;;
25331;SDS011;13284;52.748;13.452;2023-02-01T15:53:59;1.03;;;0.70;;
25331;SDS011;13284;52.748;13.452;2023-02-01T15:56:35;1.87;;;0.80;;
25331;SDS011;13284;52.748;13.452;2023-02-01T15:59:03;2.63;;;0.90;;
25331;SDS011;13284;52.748;13.452;2023-02-01T16:01:37;2.13;;;0.57;;
25331;SDS011;13284;52.748;13.452;2023-02-01T16:04:09;1.75;;;1.00;;
25331;SDS011;13284;52.748;13.452;2023-02-01T16:06:52;0.50;;;0.43;;
25331;SDS011;13284;52.748;13.452;2023-02-01T16:09:20;0.60;;;0.60;;
25331;SDS011;13284;52.748;13.452;2023-02-01T16:11:59;0.70;;;0.70;;
25331;SDS011;13284;52.748;13.452;2023-02-01T16:14:25;2.70;;;0.40;;
25331;SDS011;13284;52.748;13.452;2023-02-01T16:16:52;0.93;;;0.60;;
25331;SDS011;13284;52.748;13.452;2023-02-01T16:19:19;2.10;;;0.37;;
25331;SDS011;13284;52.748;13.452;2023-02-01T16:21:45;0.30;;;0.30;;
25331;SDS011;13284;52.748;13.452;2023-02-01T16:24:11;0.60;;;0.60;;
25331;SDS011;13284;52.748;13.452;2023-02-01T16:26:37;0.43;;;0.43;;
25331;SDS011;13284;52.748;13.452;2023-02-01T16:29:03;0.30;;;0.30;;
25331;SDS011;13284;52.748;13.452;2023-02-01T16:31:31;0.67;;;0.50;;
25331;SDS011;13284;52.748;13.452;2023-02-01T16:34:00;0.80;;;0.80;;
25331;SDS011;13284;52.748;13.452;2023-02-01T16:36:26;1.07;;;1.07;;
25331;SDS011;13284;52.748;13.452;2023-02-01T16:38:53;0.40;;;0.30;;
25331;SDS011;13284;52.748;13.452;2023-02-01T16:41:19;0.80;;;0.50;;
25331;SDS011;13284;52.748;13.452;2023-02-01T16:43:49;0.57;;;0.50;;
25331;SDS011;13284;52.748;13.452;2023-02-01T16:46:16;0.57;;;0.57;;